WIA401 TNCM-TNCS
Flight info
| Callsign | WIA401 |
|---|---|
| Flight time | 0h 11m |
| Altitude | 6000 |
| Route | PJM |
| Aircraft | DHC6/L-SDFGR/C |
Departure
| Time | 2026-05-06 04:04 |
|---|---|
| Airport | Princess Juliana International Airport (TNCM) |
Arrival
| Time | 2026-05-06 04:15 |
|---|---|
| Airport | Juancho E. Yrausquin Airport (TNCS) |
| Time | Latitude | Longitude | Altitude | Speed | Heading |
|---|---|---|---|---|---|
| 2026-05-06 04:00 | 18.04190 | -63.10925 | 16 ft | 0 kts | 352° |
| 2026-05-06 04:02 | 18.04195 | -63.10928 | 16 ft | 3 kts | 313° |
| 2026-05-06 04:02 | 18.04187 | -63.10963 | 16 ft | 7 kts | 227° |
| 2026-05-06 04:03 | 18.04151 | -63.11000 | 16 ft | 7 kts | 170° |
| 2026-05-06 04:03 | 18.04087 | -63.10987 | 17 ft | 12 kts | 147° |
| 2026-05-06 04:03 | 18.04098 | -63.10866 | 16 ft | 50 kts | 80° |
| 2026-05-06 04:03 | 18.04178 | -63.10234 | 229 ft | 104 kts | 82° |
| 2026-05-06 04:04 | 18.03863 | -63.09591 | 712 ft | 118 kts | 157° |
| 2026-05-06 04:04 | 18.03015 | -63.09600 | 1194 ft | 127 kts | 202° |
| 2026-05-06 04:04 | 18.02222 | -63.09965 | 1752 ft | 126 kts | 204° |
| 2026-05-06 04:04 | 18.01432 | -63.10308 | 2359 ft | 122 kts | 202° |
| 2026-05-06 04:05 | 18.00640 | -63.10624 | 2947 ft | 122 kts | 201° |
| 2026-05-06 04:05 | 17.99827 | -63.10925 | 3474 ft | 126 kts | 200° |
| 2026-05-06 04:05 | 17.98972 | -63.11249 | 3931 ft | 131 kts | 200° |
| 2026-05-06 04:05 | 17.98093 | -63.11547 | 4369 ft | 140 kts | 197° |
| 2026-05-06 04:06 | 17.97099 | -63.11842 | 4615 ft | 151 kts | 197° |
| 2026-05-06 04:06 | 17.96138 | -63.12130 | 5150 ft | 142 kts | 197° |
| 2026-05-06 04:06 | 17.95179 | -63.12432 | 5555 ft | 145 kts | 199° |
| 2026-05-06 04:06 | 17.94214 | -63.12768 | 5916 ft | 149 kts | 200° |
| 2026-05-06 04:07 | 17.93183 | -63.13133 | 6057 ft | 162 kts | 201° |
| 2026-05-06 04:07 | 17.92154 | -63.13570 | 6509 ft | 147 kts | 207° |
| 2026-05-06 04:07 | 17.91308 | -63.14111 | 6960 ft | 146 kts | 210° |
| 2026-05-06 04:07 | 17.90343 | -63.14545 | 7155 ft | 156 kts | 201° |
| 2026-05-06 04:08 | 17.89319 | -63.14927 | 7417 ft | 156 kts | 201° |
| 2026-05-06 04:08 | 17.88268 | -63.15338 | 7518 ft | 168 kts | 202° |
| 2026-05-06 04:08 | 17.87155 | -63.15837 | 7578 ft | 172 kts | 206° |
| 2026-05-06 04:08 | 17.86094 | -63.16368 | 7684 ft | 171 kts | 207° |
| 2026-05-06 04:09 | 17.84954 | -63.16903 | 7194 ft | 195 kts | 204° |
| 2026-05-06 04:09 | 17.83733 | -63.17474 | 6563 ft | 176 kts | 207° |
| 2026-05-06 04:09 | 17.82694 | -63.18054 | 5754 ft | 165 kts | 210° |
| 2026-05-06 04:09 | 17.81781 | -63.18587 | 5465 ft | 137 kts | 212° |
| 2026-05-06 04:10 | 17.80980 | -63.19073 | 4954 ft | 130 kts | 211° |
| 2026-05-06 04:10 | 17.80185 | -63.19519 | 4474 ft | 128 kts | 205° |
| 2026-05-06 04:10 | 17.79631 | -63.19722 | 4163 ft | 126 kts | 198° |
| 2026-05-06 04:10 | 17.78783 | -63.19974 | 3696 ft | 125 kts | 200° |
| 2026-05-06 04:11 | 17.77984 | -63.20254 | 3235 ft | 146 kts | 201° |
| 2026-05-06 04:11 | 17.76968 | -63.20595 | 3286 ft | 155 kts | 201° |
| 2026-05-06 04:11 | 17.75908 | -63.20994 | 3054 ft | 168 kts | 201° |
| 2026-05-06 04:11 | 17.74787 | -63.21411 | 2869 ft | 168 kts | 201° |
| 2026-05-06 04:12 | 17.73707 | -63.21827 | 2627 ft | 167 kts | 201° |
| 2026-05-06 04:12 | 17.72659 | -63.22223 | 2391 ft | 156 kts | 201° |
| 2026-05-06 04:12 | 17.71674 | -63.22612 | 2330 ft | 146 kts | 202° |
| 2026-05-06 04:12 | 17.70716 | -63.22964 | 2161 ft | 147 kts | 196° |
| 2026-05-06 04:13 | 17.69709 | -63.23161 | 2011 ft | 145 kts | 192° |
| 2026-05-06 04:13 | 17.68763 | -63.23357 | 1787 ft | 134 kts | 193° |
| 2026-05-06 04:13 | 17.67853 | -63.23536 | 1480 ft | 133 kts | 189° |
| 2026-05-06 04:13 | 17.66984 | -63.23650 | 1107 ft | 120 kts | 188° |
| 2026-05-06 04:14 | 17.66270 | -63.23676 | 798 ft | 89 kts | 175° |
| 2026-05-06 04:14 | 17.65656 | -63.23489 | 723 ft | 88 kts | 160° |
| 2026-05-06 04:14 | 17.65114 | -63.23176 | 571 ft | 91 kts | 147° |
| 2026-05-06 04:14 | 17.64764 | -63.22664 | 370 ft | 78 kts | 106° |
| 2026-05-06 04:15 | 17.64576 | -63.22161 | 145 ft | 71 kts | 114° |
| 2026-05-06 04:15 | 17.64468 | -63.21899 | 119 ft | 3 kts | 83° |
| 2026-05-06 04:15 | 17.64498 | -63.21947 | 122 ft | 23 kts | 290° |
| 2026-05-06 04:15 | 17.64514 | -63.22024 | 123 ft | 4 kts | 206° |
| 2026-05-06 04:16 | 17.64450 | -63.22049 | 126 ft | 3 kts | 260° |
| 2026-05-06 04:16 | 17.64470 | -63.22046 | 129 ft | 1 kts | 36° |